Time;durP1;ratioP1;P1;durP2;ratioP2;P2;SDS_P1;SDS_P2;PMS_P1;PMS_P2;Temp;Humidity;BMP_temperature;BMP_pressure;BME280_temperature;BME280_humidity;BME280_pressure;Samples;Min_cycle;Max_cycle;Signal;HPM_P1;HPM_P2
2022/03/30 00:01:33;;;;;;;0.50;0.40;;;8.00;99.90;;;;;;5054018;28;20209;-76
2022/03/30 00:04:00;;;;;;;0.50;0.40;;;8.10;99.90;;;;;;5053638;28;20653;-77
2022/03/30 00:06:27;;;;;;;0.50;0.40;;;8.00;99.90;;;;;;5053211;28;20286;-76
2022/03/30 00:08:55;;;;;;;0.50;0.40;;;8.00;99.90;;;;;;5052963;28;20696;-76
2022/03/30 00:11:22;;;;;;;0.50;0.40;;;8.00;99.90;;;;;;5053476;28;20199;-76
2022/03/30 00:13:49;;;;;;;0.50;0.40;;;8.00;99.90;;;;;;5053166;28;20250;-76
2022/03/30 00:16:16;;;;;;;0.50;0.40;;;7.90;99.90;;;;;;5053329;28;20205;-76
2022/03/30 00:18:42;;;;;;;0.50;0.50;;;7.90;99.90;;;;;;5053640;28;20200;-75
2022/03/30 00:21:09;;;;;;;0.85;0.82;;;7.90;99.90;;;;;;5052785;28;20205;-76
2022/03/30 00:23:36;;;;;;;0.50;0.40;;;8.00;99.90;;;;;;5053506;28;20222;-75
2022/03/30 00:26:04;;;;;;;0.50;0.40;;;8.00;99.90;;;;;;5053195;28;20205;-76
2022/03/30 00:28:31;;;;;;;0.50;0.40;;;7.90;99.90;;;;;;5053152;28;20206;-76
2022/03/30 00:30:58;;;;;;;1.50;1.40;;;7.90;99.90;;;;;;5052762;28;20201;-76
2022/03/30 00:33:25;;;;;;;0.50;0.40;;;7.80;99.90;;;;;;5053235;28;20223;-76
2022/03/30 00:35:52;;;;;;;1.98;1.88;;;7.80;99.90;;;;;;5053094;28;20217;-76
2022/03/30 00:38:19;;;;;;;0.50;0.40;;;7.80;99.90;;;;;;5053024;28;20201;-77
2022/03/30 00:40:46;;;;;;;0.50;0.40;;;7.70;99.90;;;;;;5051050;28;20190;-74
2022/03/30 00:43:14;;;;;;;1.23;1.13;;;7.60;99.90;;;;;;5052465;28;20223;-77
2022/03/30 00:45:41;;;;;;;0.50;0.40;;;7.60;99.90;;;;;;5053087;28;20198;-76
2022/03/30 00:48:08;;;;;;;0.50;0.40;;;7.50;99.90;;;;;;5052495;28;20218;-76
2022/03/30 00:50:35;;;;;;;0.50;0.40;;;7.40;99.90;;;;;;5052321;28;20256;-76
2022/03/30 00:53:03;;;;;;;0.52;0.40;;;7.50;99.90;;;;;;5050693;28;20234;-75
2022/03/30 00:55:30;;;;;;;0.50;0.40;;;7.40;99.90;;;;;;5052609;28;20248;-77
2022/03/30 00:57:58;;;;;;;0.50;0.40;;;7.40;99.90;;;;;;5052769;28;20572;-76
2022/03/30 01:00:26;;;;;;;0.50;0.40;;;7.30;99.90;;;;;;5052307;28;20624;-76
2022/03/30 01:02:53;;;;;;;0.50;0.40;;;7.20;99.90;;;;;;5052487;28;20225;-76
2022/03/30 01:05:20;;;;;;;0.60;0.40;;;7.20;99.90;;;;;;5052248;28;20194;-77
2022/03/30 01:07:47;;;;;;;0.50;0.40;;;7.10;99.90;;;;;;5052644;28;20560;-76
2022/03/30 01:10:16;;;;;;;0.50;0.40;;;7.10;99.90;;;;;;5051902;28;20297;-72
2022/03/30 01:12:44;;;;;;;0.50;0.40;;;7.00;99.90;;;;;;5052158;28;20222;-74
2022/03/30 01:15:13;;;;;;;0.50;0.40;;;7.00;99.90;;;;;;5052155;28;20668;-76
2022/03/30 01:17:41;;;;;;;0.50;0.43;;;7.00;99.90;;;;;;5052117;28;20229;-76
2022/03/30 01:20:10;;;;;;;4.55;3.05;;;7.00;99.90;;;;;;5051574;28;20676;-74
2022/03/30 01:22:38;;;;;;;0.50;0.40;;;6.90;99.90;;;;;;5052321;28;20250;-76
2022/03/30 01:25:06;;;;;;;0.50;0.50;;;6.90;99.90;;;;;;5052005;28;20203;-76
2022/03/30 01:27:33;;;;;;;0.50;0.50;;;6.80;99.90;;;;;;5052268;28;20198;-76
2022/03/30 01:32:53;;;;;;;0.50;0.40;;;6.70;99.90;;;;;;5052109;28;20332;-76
2022/03/30 01:35:19;;;;;;;0.50;0.40;;;6.70;99.90;;;;;;5052070;28;20190;-76
2022/03/30 01:37:48;;;;;;;0.50;0.40;;;6.60;99.90;;;;;;5051873;28;20667;-77
2022/03/30 01:40:14;;;;;;;0.50;0.40;;;6.60;99.90;;;;;;5051337;28;20198;-72
2022/03/30 01:42:41;;;;;;;0.50;0.40;;;6.60;99.90;;;;;;5051449;28;20258;-76
2022/03/30 01:45:11;;;;;;;0.50;0.40;;;6.60;99.90;;;;;;5051883;28;20194;-72
2022/03/30 01:47:39;;;;;;;0.50;0.50;;;6.60;99.90;;;;;;5052081;28;20241;-76
2022/03/30 01:50:09;;;;;;;0.50;0.40;;;6.60;99.90;;;;;;5050707;28;20221;-76
2022/03/30 01:52:36;;;;;;;0.50;0.40;;;6.60;99.90;;;;;;5051866;28;20214;-76
2022/03/30 01:55:05;;;;;;;0.50;0.40;;;6.60;99.90;;;;;;5049689;28;20292;-76
2022/03/30 01:57:31;;;;;;;0.60;0.40;;;6.60;99.90;;;;;;5051835;28;20202;-76
2022/03/30 01:59:58;;;;;;;0.50;0.40;;;6.60;99.90;;;;;;5051132;28;20190;-76
2022/03/30 02:02:25;;;;;;;0.60;0.60;;;6.60;99.90;;;;;;5051681;28;20222;-76
2022/03/30 02:04:51;;;;;;;0.50;0.40;;;6.70;99.90;;;;;;5050870;28;20190;-76
2022/03/30 02:07:20;;;;;;;0.50;0.40;;;6.70;99.90;;;;;;5051605;28;20194;-76
2022/03/30 02:09:48;;;;;;;0.60;0.40;;;6.80;99.90;;;;;;5050288;28;20206;-76
2022/03/30 02:12:16;;;;;;;0.50;0.40;;;6.80;99.90;;;;;;5051611;28;20198;-77
2022/03/30 02:14:43;;;;;;;2.25;2.15;;;6.80;99.90;;;;;;5050974;28;20229;-76
2022/03/30 02:17:10;;;;;;;0.50;0.40;;;6.80;99.90;;;;;;5051503;28;20572;-72
2022/03/30 02:19:37;;;;;;;0.50;0.40;;;6.70;99.90;;;;;;5050596;28;20191;-75
2022/03/30 02:22:04;;;;;;;0.80;0.80;;;6.70;99.90;;;;;;5051536;28;20615;-76
2022/03/30 02:24:31;;;;;;;0.50;0.40;;;6.70;99.90;;;;;;5051423;28;20205;-76
2022/03/30 02:26:57;;;;;;;24.45;22.88;;;6.70;99.90;;;;;;5051083;28;20198;-77
2022/03/30 02:29:25;;;;;;;0.50;0.40;;;6.70;99.90;;;;;;5050421;28;20218;-76
2022/03/30 02:31:52;;;;;;;3.35;3.25;;;6.60;99.90;;;;;;5050991;28;20668;-77
2022/03/30 02:34:19;;;;;;;0.50;0.40;;;6.50;99.90;;;;;;5051582;28;20246;-76
2022/03/30 02:36:46;;;;;;;0.50;0.50;;;6.50;99.90;;;;;;5051290;28;20561;-76
2022/03/30 02:39:14;;;;;;;0.50;0.40;;;6.30;99.90;;;;;;5050482;28;20249;-74
2022/03/30 02:41:40;;;;;;;0.60;0.60;;;6.20;99.90;;;;;;5051163;28;20199;-76
2022/03/30 02:44:16;;;;;;;0.88;0.88;;;6.10;99.90;;;;;;5052103;28;20226;-76
2022/03/30 02:46:44;;;;;;;0.50;0.40;;;6.10;99.90;;;;;;5051176;28;20598;-77
2022/03/30 02:49:11;;;;;;;7.18;1.40;;;6.10;99.90;;;;;;5050203;28;20210;-78
2022/03/30 02:51:39;;;;;;;0.88;0.82;;;6.00;99.90;;;;;;5051006;28;20191;-76
2022/03/30 02:54:06;;;;;;;0.50;0.40;;;5.90;99.90;;;;;;5049365;28;20225;-71
2022/03/30 02:56:33;;;;;;;0.80;0.80;;;5.70;99.90;;;;;;5050875;28;20284;-76
2022/03/30 02:59:00;;;;;;;0.50;0.40;;;5.50;99.90;;;;;;5050330;28;20195;-76
2022/03/30 03:01:26;;;;;;;3.95;3.25;;;5.40;99.90;;;;;;5050838;28;20197;-76
2022/03/30 03:03:54;;;;;;;0.85;0.77;;;5.30;99.90;;;;;;5050812;28;20211;-76
2022/03/30 03:06:21;;;;;;;0.50;0.40;;;5.20;99.90;;;;;;5054960;28;20572;-76
2022/03/30 03:08:48;;;;;;;1.33;1.25;;;5.10;99.90;;;;;;5054290;28;20218;-73
2022/03/30 03:11:14;;;;;;;0.50;0.40;;;5.00;99.90;;;;;;5054964;28;20597;-76
2022/03/30 03:13:41;;;;;;;0.50;0.45;;;5.00;99.90;;;;;;5054584;28;20240;-76
2022/03/30 03:16:08;;;;;;;1.48;1.38;;;4.90;99.90;;;;;;5054750;28;20221;-75
2022/03/30 03:18:36;;;;;;;0.77;0.77;;;4.80;99.90;;;;;;5054213;28;20201;-76
2022/03/30 03:21:04;;;;;;;0.50;0.40;;;4.80;99.90;;;;;;5053971;28;20195;-72
2022/03/30 03:23:31;;;;;;;0.50;0.40;;;4.80;99.90;;;;;;5054688;28;20217;-76
2022/03/30 03:25:57;;;;;;;0.50;0.40;;;4.70;99.90;;;;;;5054739;28;20275;-78
2022/03/30 03:28:24;;;;;;;9.13;2.35;;;4.70;99.90;;;;;;5053918;28;20196;-75
2022/03/30 03:30:50;;;;;;;0.50;0.40;;;4.70;99.90;;;;;;5053699;28;20197;-75
2022/03/30 03:33:17;;;;;;;0.50;0.40;;;4.60;99.90;;;;;;5054155;28;20215;-74
2022/03/30 03:35:45;;;;;;;2.22;1.13;;;4.60;99.90;;;;;;5054306;28;20618;-75
2022/03/30 03:38:13;;;;;;;0.93;0.93;;;4.60;99.90;;;;;;5054354;28;20201;-74
2022/03/30 03:40:40;;;;;;;1.30;1.20;;;4.60;99.90;;;;;;5053301;28;20190;-75
2022/03/30 03:43:07;;;;;;;0.60;0.40;;;4.50;99.90;;;;;;5053062;28;20233;-75
2022/03/30 03:45:34;;;;;;;0.50;0.40;;;4.40;99.90;;;;;;5054147;28;20201;-75
2022/03/30 03:48:01;;;;;;;0.50;0.40;;;4.40;99.90;;;;;;5054022;28;20757;-75
2022/03/30 03:50:28;;;;;;;0.50;0.45;;;4.30;99.90;;;;;;5053074;28;20268;-75
2022/03/30 03:52:55;;;;;;;0.50;0.40;;;4.30;99.90;;;;;;5053885;28;20253;-76
2022/03/30 03:55:23;;;;;;;0.50;0.40;;;4.30;99.90;;;;;;5052974;28;20202;-75
2022/03/30 03:57:50;;;;;;;0.50;0.40;;;4.30;99.90;;;;;;5054047;28;20201;-75
2022/03/30 04:00:18;;;;;;;0.50;0.50;;;4.30;99.90;;;;;;5052787;28;20198;-74
2022/03/30 04:02:45;;;;;;;0.50;0.40;;;4.30;99.90;;;;;;5053877;28;20225;-75
2022/03/30 04:05:14;;;;;;;0.70;0.40;;;4.30;99.90;;;;;;5053509;28;20225;-75
2022/03/30 04:07:40;;;;;;;0.50;0.40;;;4.30;99.90;;;;;;5053304;28;20251;-76
2022/03/30 04:10:09;;;;;;;0.50;0.40;;;4.20;99.90;;;;;;5052912;28;20225;-75
2022/03/30 04:12:38;;;;;;;0.50;0.50;;;4.20;99.90;;;;;;5053179;28;20218;-76
2022/03/30 04:15:06;;;;;;;0.50;0.40;;;4.10;99.90;;;;;;5053168;28;20209;-76
2022/03/30 04:17:33;;;;;;;0.52;0.43;;;4.10;99.90;;;;;;5053767;28;20209;-76
2022/03/30 04:20:01;;;;;;;0.50;0.40;;;4.10;99.90;;;;;;5052550;28;20224;-75
2022/03/30 04:22:27;;;;;;;0.50;0.40;;;4.10;99.90;;;;;;5053183;28;20249;-76
2022/03/30 04:24:54;;;;;;;1.02;1.02;;;4.10;99.90;;;;;;5053303;28;20202;-75
2022/03/30 04:27:21;;;;;;;0.50;0.40;;;4.10;99.90;;;;;;5053150;28;20228;-75
2022/03/30 04:29:49;;;;;;;0.50;0.40;;;4.10;99.90;;;;;;5052387;28;20213;-76
2022/03/30 04:32:16;;;;;;;0.50;0.40;;;4.10;99.90;;;;;;5053008;28;20687;-77
2022/03/30 04:34:43;;;;;;;0.50;0.40;;;4.20;99.90;;;;;;5053136;28;20197;-76
2022/03/30 04:37:09;;;;;;;0.50;0.40;;;4.10;99.90;;;;;;5053198;28;20584;-75
2022/03/30 04:39:36;;;;;;;0.50;0.50;;;4.00;99.90;;;;;;5052455;28;20198;-77
2022/03/30 04:42:03;;;;;;;0.50;0.40;;;4.00;99.90;;;;;;5053066;28;20559;-76
2022/03/30 04:44:30;;;;;;;0.50;0.40;;;3.90;99.90;;;;;;5052986;28;20204;-78
2022/03/30 04:46:59;;;;;;;0.50;0.40;;;3.80;99.90;;;;;;5053319;28;20200;-76
2022/03/30 04:49:26;;;;;;;1.27;1.17;;;3.80;99.90;;;;;;5052227;28;20220;-76
2022/03/30 04:51:53;;;;;;;0.50;0.40;;;3.60;99.90;;;;;;5052494;28;20204;-77
2022/03/30 04:54:19;;;;;;;0.50;0.40;;;3.60;99.90;;;;;;5051822;28;20634;-76
2022/03/30 04:56:50;;;;;;;0.50;0.40;;;3.50;99.90;;;;;;5052517;28;20201;-76
2022/03/30 04:59:17;;;;;;;0.50;0.40;;;3.50;99.90;;;;;;5051760;28;20213;-74
2022/03/30 05:01:43;;;;;;;0.50;0.50;;;3.40;99.90;;;;;;5052577;28;20205;-78
2022/03/30 05:04:11;;;;;;;0.50;0.40;;;3.40;99.90;;;;;;5052876;28;20222;-78
2022/03/30 05:06:38;;;;;;;0.60;0.50;;;3.40;99.90;;;;;;5052727;28;20209;-75
2022/03/30 05:09:05;;;;;;;0.50;0.40;;;3.30;99.90;;;;;;5051837;28;20651;-76
2022/03/30 05:11:32;;;;;;;0.50;0.50;;;3.30;99.90;;;;;;5051990;28;20611;-76
2022/03/30 05:13:58;;;;;;;0.50;0.40;;;3.30;99.90;;;;;;5051999;28;20224;-76
2022/03/30 05:16:25;;;;;;;4.25;3.15;;;3.30;99.90;;;;;;5052464;28;20197;-75
2022/03/30 05:18:52;;;;;;;0.80;0.80;;;3.30;99.90;;;;;;5051804;28;20200;-75
2022/03/30 05:21:20;;;;;;;0.60;0.50;;;3.30;99.90;;;;;;5051684;28;20249;-73
2022/03/30 05:23:46;;;;;;;0.50;0.40;;;3.20;99.90;;;;;;5052127;28;20735;-75
2022/03/30 05:26:13;;;;;;;0.50;0.40;;;3.20;99.90;;;;;;5051475;28;20623;-76
2022/03/30 05:28:42;;;;;;;0.50;0.50;;;3.20;99.90;;;;;;5051347;28;20205;-75
2022/03/30 05:31:09;;;;;;;9.20;3.15;;;3.30;99.90;;;;;;5051281;28;20259;-75
2022/03/30 05:33:36;;;;;;;0.50;0.50;;;3.40;99.90;;;;;;5051592;28;20224;-75
2022/03/30 05:36:03;;;;;;;1.13;1.10;;;3.40;99.90;;;;;;5051459;28;20200;-75
2022/03/30 05:38:31;;;;;;;0.50;0.43;;;3.40;99.90;;;;;;5051641;28;20288;-76
2022/03/30 05:40:58;;;;;;;0.50;0.43;;;3.40;99.90;;;;;;5050727;28;20219;-77
2022/03/30 05:43:25;;;;;;;0.50;0.43;;;3.50;99.90;;;;;;5050828;28;20229;-75
2022/03/30 05:45:52;;;;;;;0.50;0.50;;;3.50;99.90;;;;;;5051173;28;20195;-75
2022/03/30 05:48:19;;;;;;;0.50;0.40;;;3.50;99.90;;;;;;5051636;28;20201;-74
2022/03/30 05:50:46;;;;;;;0.50;0.40;;;3.60;99.90;;;;;;5050682;28;20556;-75
2022/03/30 05:53:14;;;;;;;0.50;0.50;;;3.60;99.90;;;;;;5049593;28;20795;-75
2022/03/30 05:55:44;;;;;;;0.50;0.50;;;3.80;99.90;;;;;;5051601;28;20235;-75
2022/03/30 05:58:11;;;;;;;0.50;0.50;;;3.90;99.90;;;;;;5051708;28;20189;-75
2022/03/30 06:00:38;;;;;;;0.50;0.40;;;4.10;99.90;;;;;;5050702;28;20198;-74
2022/03/30 06:03:05;;;;;;;0.50;0.40;;;4.30;99.90;;;;;;5050767;28;20222;-74
2022/03/30 06:05:32;;;;;;;0.50;0.45;;;4.60;99.90;;;;;;5050908;28;20201;-76
2022/03/30 06:07:59;;;;;;;0.60;0.40;;;4.90;99.90;;;;;;5051510;28;20202;-75
2022/03/30 06:10:27;;;;;;;0.77;0.77;;;5.00;99.90;;;;;;5050528;28;20222;-77
2022/03/30 06:12:56;;;;;;;0.50;0.40;;;5.20;99.90;;;;;;5050564;28;20293;-75
2022/03/30 06:15:23;;;;;;;0.77;0.77;;;5.40;99.90;;;;;;5051045;28;20682;-75
2022/03/30 06:17:50;;;;;;;1.90;1.80;;;5.60;99.90;;;;;;5050995;28;20230;-76
2022/03/30 06:20:17;;;;;;;0.60;0.40;;;5.80;99.90;;;;;;5050253;28;20596;-72
2022/03/30 06:22:44;;;;;;;0.50;0.40;;;5.70;99.90;;;;;;5050847;28;20233;-75
2022/03/30 06:25:11;;;;;;;0.50;0.40;;;5.60;99.90;;;;;;5050897;28;20199;-76
2022/03/30 06:27:38;;;;;;;0.50;0.50;;;5.70;99.90;;;;;;5050896;28;20564;-75
2022/03/30 06:30:08;;;;;;;0.63;0.63;;;6.10;99.90;;;;;;5050385;28;20233;-77
2022/03/30 06:32:36;;;;;;;0.50;0.40;;;6.30;99.90;;;;;;5051010;28;20210;-75
2022/03/30 06:35:03;;;;;;;0.50;0.50;;;6.40;99.90;;;;;;5050824;28;20225;-76
2022/03/30 06:37:29;;;;;;;0.95;0.95;;;6.60;99.90;;;;;;5050721;28;20259;-77
2022/03/30 06:39:56;;;;;;;0.50;0.40;;;7.00;99.90;;;;;;5053632;28;20194;-75
2022/03/30 06:42:23;;;;;;;0.50;0.40;;;7.80;99.90;;;;;;5054909;28;20195;-75
2022/03/30 06:44:50;;;;;;;0.80;0.80;;;8.70;99.90;;;;;;5054637;28;20241;-76
2022/03/30 06:47:18;;;;;;;0.50;0.50;;;9.80;99.90;;;;;;5054992;28;20198;-76
2022/03/30 06:49:45;;;;;;;0.60;0.52;;;10.90;99.90;;;;;;5053973;28;20277;-76
2022/03/30 06:52:12;;;;;;;0.70;0.70;;;11.30;99.90;;;;;;5054630;28;20197;-76
2022/03/30 06:54:39;;;;;;;0.50;0.40;;;12.30;99.90;;;;;;5052690;28;20568;-76
2022/03/30 06:57:06;;;;;;;0.50;0.40;;;13.10;99.90;;;;;;5040775;28;20194;-76
2022/03/30 06:59:33;;;;;;;0.50;0.43;;;13.50;99.90;;;;;;5053651;28;20649;-75
2022/03/30 07:01:59;;;;;;;0.50;0.40;;;14.00;99.90;;;;;;5054928;28;20441;-76
2022/03/30 07:04:27;;;;;;;0.50;0.50;;;14.90;99.90;;;;;;5053929;28;20522;-75
2022/03/30 07:12:22;;;;;;;0.97;0.97;;;16.40;89.50;;;;;;5052624;28;20461;-76
2022/03/30 07:14:49;;;;;;;0.50;0.40;;;16.70;80.60;;;;;;5053840;28;20821;-76
2022/03/30 07:17:16;;;;;;;0.50;0.40;;;17.20;84.40;;;;;;5054333;28;20444;-76
2022/03/30 07:19:44;;;;;;;0.50;0.30;;;18.00;79.30;;;;;;5052940;28;20448;-77
2022/03/30 07:22:13;;;;;;;0.70;0.70;;;18.30;77.10;;;;;;5052005;28;20524;-76
2022/03/30 07:24:40;;;;;;;0.90;0.90;;;18.00;71.10;;;;;;5054009;28;21356;-76
2022/03/30 07:27:07;;;;;;;0.60;0.43;;;18.30;72.30;;;;;;5053920;28;20443;-75
2022/03/30 07:29:33;;;;;;;0.50;0.30;;;19.20;71.40;;;;;;5052805;28;20436;-76
2022/03/30 07:32:00;;;;;;;0.50;0.30;;;20.10;68.70;;;;;;5053993;28;20452;-77
2022/03/30 07:34:27;;;;;;;0.50;0.30;;;20.20;65.60;;;;;;5053485;28;20465;-76
2022/03/30 07:36:55;;;;;;;0.50;0.30;;;21.20;66.30;;;;;;5048611;28;20457;-79
2022/03/30 07:39:21;;;;;;;0.50;0.40;;;21.40;63.20;;;;;;5045922;28;20437;-76
2022/03/30 07:41:48;;;;;;;0.50;0.40;;;22.30;60.90;;;;;;5053849;28;20440;-77
2022/03/30 07:44:15;;;;;;;0.50;0.40;;;22.10;58.20;;;;;;5053508;28;20510;-77
2022/03/30 07:46:43;;;;;;;0.50;0.40;;;22.10;57.90;;;;;;5053631;28;20939;-77
2022/03/30 07:49:10;;;;;;;0.50;0.43;;;22.90;57.60;;;;;;5052995;28;20902;-76
2022/03/30 07:51:36;;;;;;;0.50;0.40;;;23.00;57.30;;;;;;5053121;28;20481;-78
2022/03/30 07:54:05;;;;;;;0.50;0.40;;;23.40;56.30;;;;;;5052042;28;20966;-77
2022/03/30 07:56:32;;;;;;;0.60;0.40;;;23.20;53.50;;;;;;5052248;28;20449;-77
2022/03/30 07:59:00;;;;;;;0.60;0.50;;;23.40;53.80;;;;;;5052163;28;20441;-74
2022/03/30 08:01:26;;;;;;;0.70;0.70;;;23.50;53.90;;;;;;5053105;28;20559;-76
2022/03/30 08:03:53;;;;;;;0.50;0.37;;;23.70;52.80;;;;;;5053688;28;20535;-78
2022/03/30 08:06:20;;;;;;;0.50;0.30;;;23.00;53.60;;;;;;5053704;28;20480;-76
2022/03/30 08:08:47;;;;;;;0.50;0.30;;;22.60;53.10;;;;;;5052985;28;20456;-78
2022/03/30 08:11:15;;;;;;;0.50;0.30;;;22.70;55.40;;;;;;5052596;28;20477;-78
2022/03/30 08:13:42;;;;;;;0.50;0.30;;;22.60;52.70;;;;;;5053215;28;20461;-76
2022/03/30 08:16:08;;;;;;;0.50;0.40;;;22.40;54.00;;;;;;5049310;28;20453;-76
2022/03/30 08:18:35;;;;;;;1.47;0.80;;;22.20;53.90;;;;;;5043976;28;20922;-76
2022/03/30 08:23:46;;;;;;;0.50;0.30;;;22.70;54.50;;;;;;5053010;28;20544;-77
2022/03/30 08:26:12;;;;;;;0.50;0.37;;;23.50;54.00;;;;;;5052788;28;20923;-72
2022/03/30 08:28:40;;;;;;;0.50;0.40;;;24.00;53.00;;;;;;5052915;28;20449;-77
2022/03/30 08:31:09;;;;;;;0.50;0.40;;;23.60;51.60;;;;;;5052249;28;20469;-76
2022/03/30 08:33:35;;;;;;;0.50;0.30;;;21.90;53.10;;;;;;5052275;28;20895;-77
2022/03/30 08:36:02;;;;;;;0.90;0.90;;;22.50;53.50;;;;;;5051258;28;20441;-77
2022/03/30 08:38:29;;;;;;;0.50;0.40;;;23.00;53.00;;;;;;5052293;28;20457;-79
2022/03/30 08:40:57;;;;;;;0.50;0.30;;;23.20;53.00;;;;;;5051760;28;20437;-77
2022/03/30 08:43:24;;;;;;;0.50;0.30;;;23.30;51.90;;;;;;5052125;28;20473;-78
2022/03/30 08:45:55;;;;;;;0.50;0.30;;;23.80;53.60;;;;;;5076657;22;20484;-80
2022/03/30 08:48:21;;;;;;;0.50;0.30;;;23.90;51.50;;;;;;5057701;28;20487;-80
2022/03/30 08:50:49;;;;;;;0.50;0.30;;;24.00;51.60;;;;;;5056822;28;20488;-79
2022/03/30 08:53:18;;;;;;;0.77;0.70;;;24.10;50.50;;;;;;5057901;28;20672;-79
2022/03/30 08:55:45;;;;;;;2.60;1.47;;;24.70;51.00;;;;;;5058108;28;20465;-80
2022/03/30 08:58:12;;;;;;;2.83;0.77;;;24.50;48.90;;;;;;5058257;28;20943;-80
2022/03/30 09:00:39;;;;;;;0.50;0.33;;;24.40;49.60;;;;;;5056346;28;20870;-81
2022/03/30 09:03:08;;;;;;;3.50;1.03;;;24.80;49.70;;;;;;5056336;28;20441;-79
2022/03/30 09:05:37;;;;;;;0.50;0.30;;;25.20;48.20;;;;;;5058109;28;20461;-81
2022/03/30 09:08:13;;;;;;;0.50;0.40;;;25.20;48.60;;;;;;5057370;28;20473;-78
2022/03/30 09:10:42;;;;;;;0.60;0.50;;;25.80;47.60;;;;;;5056515;28;20500;-78
2022/03/30 09:13:08;;;;;;;0.60;0.60;;;25.60;47.20;;;;;;5058334;28;20445;-80
2022/03/30 09:15:38;;;;;;;0.50;0.30;;;25.90;46.60;;;;;;5056985;28;20464;-79
2022/03/30 09:18:09;;;;;;;0.57;0.47;;;25.20;48.00;;;;;;5057353;28;20498;-80
2022/03/30 09:20:38;;;;;;;1.10;1.00;;;25.10;49.90;;;;;;5055807;28;20436;-81
2022/03/30 09:23:06;;;;;;;0.50;0.30;;;25.30;49.00;;;;;;5054862;28;20519;-80
2022/03/30 09:25:34;;;;;;;2.67;0.60;;;25.20;48.30;;;;;;5057055;28;20480;-80
2022/03/30 09:28:01;;;;;;;0.50;0.37;;;25.30;47.30;;;;;;5057283;28;20440;-80
2022/03/30 09:30:29;;;;;;;1.53;0.73;;;25.70;47.70;;;;;;5056063;28;20447;-80
2022/03/30 09:32:58;;;;;;;0.90;0.67;;;25.40;46.80;;;;;;5056404;28;20445;-80
2022/03/30 09:35:30;;;;;;;3.57;2.10;;;25.00;48.60;;;;;;5056743;28;20453;-80
2022/03/30 09:38:08;;;;;;;0.50;0.50;;;25.00;48.10;;;;;;5056494;28;20420;-80
2022/03/30 09:40:40;;;;;;;5.03;2.30;;;23.70;48.50;;;;;;5055877;28;20429;-79
2022/03/30 09:43:12;;;;;;;1.73;1.63;;;24.60;49.50;;;;;;5056093;28;20431;-79
2022/03/30 09:45:39;;;;;;;0.70;0.70;;;25.00;49.00;;;;;;5056662;28;20469;-80
2022/03/30 09:48:11;;;;;;;0.50;0.30;;;25.40;48.10;;;;;;5056868;28;20448;-80
2022/03/30 09:50:47;;;;;;;0.70;0.70;;;26.10;47.30;;;;;;5055538;28;20468;-80
2022/03/30 09:53:16;;;;;;;2.00;1.47;;;25.40;47.30;;;;;;5056175;28;20433;-79
2022/03/30 09:56:00;;;;;;;0.50;0.47;;;25.80;47.50;;;;;;5056541;28;20472;-80
2022/03/30 09:58:29;;;;;;;2.63;2.43;;;26.20;47.10;;;;;;5056669;28;20421;-80
2022/03/30 10:01:20;;;;;;;0.63;0.63;;;26.60;47.60;;;;;;5055882;28;20456;-80
2022/03/30 10:03:50;;;;;;;0.50;0.30;;;26.40;46.50;;;;;;5056513;28;20534;-80
2022/03/30 10:06:20;;;;;;;2.07;1.97;;;26.00;47.50;;;;;;5056208;28;20452;-80
2022/03/30 10:08:49;;;;;;;0.50;0.40;;;24.90;46.50;;;;;;5056235;28;20424;-78
2022/03/30 10:11:17;;;;;;;1.27;0.73;;;24.40;48.70;;;;;;5055893;28;20550;-80
2022/03/30 10:13:46;;;;;;;0.50;0.30;;;25.30;47.20;;;;;;5056780;28;20452;-80
2022/03/30 10:16:13;;;;;;;0.60;0.60;;;25.70;48.30;;;;;;5056286;28;20974;-80
2022/03/30 10:18:41;;;;;;;1.00;1.00;;;25.60;47.50;;;;;;5057095;28;20443;-80
2022/03/30 10:21:23;;;;;;;2.33;1.17;;;25.60;46.20;;;;;;5055024;28;20937;-78
2022/03/30 10:24:20;;;;;;;0.50;0.30;;;25.00;46.00;;;;;;5057383;28;20430;-80
2022/03/30 10:27:00;;;;;;;0.60;0.50;;;24.50;48.00;;;;;;5056144;28;20993;-80
2022/03/30 10:29:29;;;;;;;0.50;0.40;;;24.40;46.80;;;;;;5054695;28;20826;-80
2022/03/30 10:32:17;;;;;;;0.50;0.30;;;24.20;47.90;;;;;;5056777;28;20476;-80
2022/03/30 10:35:04;;;;;;;0.50;0.40;;;24.40;48.30;;;;;;5056900;28;20445;-79
2022/03/30 10:37:34;;;;;;;0.50;0.30;;;25.10;47.90;;;;;;5056080;28;20425;-78
2022/03/30 10:40:21;;;;;;;0.50;0.30;;;25.00;47.60;;;;;;5055631;28;20445;-78
2022/03/30 10:43:06;;;;;;;0.50;0.30;;;25.50;47.10;;;;;;5055877;28;20430;-80
2022/03/30 10:45:40;;;;;;;1.03;0.97;;;25.50;47.30;;;;;;5055831;28;20812;-79
2022/03/30 10:48:12;;;;;;;0.50;0.30;;;25.70;47.20;;;;;;5055833;28;20483;-79
2022/03/30 10:50:41;;;;;;;0.70;0.70;;;25.80;46.00;;;;;;5054089;28;20449;-79
2022/03/30 10:53:44;;;;;;;0.60;0.60;;;25.70;45.70;;;;;;5055548;28;20445;-79
2022/03/30 10:56:32;;;;;;;0.50;0.30;;;25.60;46.10;;;;;;5055608;28;20456;-79
2022/03/30 10:59:23;;;;;;;0.50;0.30;;;25.50;47.70;;;;;;5051002;28;20445;-78
2022/03/30 11:01:49;;;;;;;0.50;0.30;;;26.20;47.10;;;;;;5065727;28;20413;-78
2022/03/30 11:04:20;;;;;;;1.70;1.13;;;25.90;45.90;;;;;;5068641;28;20444;-77
2022/03/30 11:06:50;;;;;;;0.60;0.50;;;26.20;46.50;;;;;;5064730;28;20453;-80
2022/03/30 11:09:28;;;;;;;0.50;0.30;;;26.90;46.60;;;;;;5059308;28;20465;-80
2022/03/30 11:12:00;;;;;;;0.50;0.30;;;27.20;45.90;;;;;;5056633;28;20477;-80
2022/03/30 11:14:29;;;;;;;0.50;0.43;;;27.70;44.90;;;;;;5056000;28;20437;-80
2022/03/30 11:16:57;;;;;;;0.50;0.30;;;28.10;43.50;;;;;;5055989;28;20484;-80
2022/03/30 11:19:29;;;;;;;1.17;1.07;;;28.20;43.90;;;;;;5054683;28;20480;-79
2022/03/30 11:22:08;;;;;;;0.50;0.30;;;27.70;43.70;;;;;;5053417;28;20457;-82
2022/03/30 11:24:36;;;;;;;0.50;0.30;;;26.80;44.30;;;;;;5055384;28;20441;-78
2022/03/30 11:27:21;;;;;;;0.50;0.40;;;26.50;44.70;;;;;;5059416;28;20453;-81
2022/03/30 11:30:09;;;;;;;0.60;0.40;;;26.60;45.70;;;;;;5058448;28;20425;-79
2022/03/30 11:33:01;;;;;;;2.93;2.57;;;27.20;44.60;;;;;;5059569;28;20946;-80
2022/03/30 11:35:42;;;;;;;0.50;0.40;;;27.40;44.50;;;;;;5059643;28;20468;-81
2022/03/30 11:38:24;;;;;;;0.50;0.30;;;27.30;45.80;;;;;;5058699;28;20532;-78
2022/03/30 11:40:58;;;;;;;0.50;0.30;;;27.30;44.10;;;;;;5057217;28;20444;-80
2022/03/30 11:43:25;;;;;;;0.50;0.40;;;26.30;44.10;;;;;;5058446;28;20428;-80
2022/03/30 11:45:52;;;;;;;0.50;0.30;;;25.60;45.50;;;;;;5057826;28;21031;-78
2022/03/30 11:48:19;;;;;;;0.50;0.30;;;25.70;46.10;;;;;;5057011;28;20429;-78
2022/03/30 11:50:48;;;;;;;0.77;0.77;;;26.10;46.20;;;;;;5057746;28;20428;-79
2022/03/30 11:53:20;;;;;;;0.50;0.37;;;25.90;45.60;;;;;;5057071;28;20484;-77
2022/03/30 11:55:54;;;;;;;0.50;0.30;;;26.60;46.90;;;;;;5058589;28;20457;-80
2022/03/30 11:58:25;;;;;;;0.50;0.47;;;26.50;44.70;;;;;;5052138;28;20461;-79
2022/03/30 12:00:53;;;;;;;0.50;0.30;;;26.40;45.50;;;;;;5057671;28;20448;-79
2022/03/30 12:03:20;;;;;;;1.53;1.27;;;26.40;46.20;;;;;;5058472;28;20440;-79
2022/03/30 12:05:51;;;;;;;0.70;0.43;;;26.70;45.30;;;;;;5058357;28;21068;-79
2022/03/30 12:08:18;;;;;;;0.50;0.30;;;26.80;45.00;;;;;;5058574;28;20440;-79
2022/03/30 12:10:46;;;;;;;0.50;0.30;;;24.90;45.30;;;;;;5056910;28;20445;-78
2022/03/30 12:13:22;;;;;;;0.50;0.30;;;23.70;46.40;;;;;;5061774;28;20468;-78
2022/03/30 12:15:59;;;;;;;0.50;0.50;;;21.90;47.80;;;;;;5072200;28;20864;-79
2022/03/30 12:18:26;;;;;;;0.50;0.40;;;21.20;49.00;;;;;;5070395;28;20436;-78
2022/03/30 12:20:53;;;;;;;0.50;0.40;;;20.20;49.70;;;;;;5070932;28;20476;-77
2022/03/30 12:23:20;;;;;;;0.50;0.30;;;20.10;51.90;;;;;;5058960;28;20440;-80
2022/03/30 12:25:48;;;;;;;0.50;0.40;;;21.50;53.10;;;;;;5057307;28;20473;-80
2022/03/30 12:28:28;;;;;;;0.50;0.30;;;22.40;49.80;;;;;;5060979;28;20441;-79
2022/03/30 12:30:55;;;;;;;0.50;0.50;;;24.00;48.90;;;;;;5067960;28;20441;-79
2022/03/30 12:33:22;;;;;;;0.50;0.30;;;24.80;48.70;;;;;;5070010;28;20488;-78
2022/03/30 12:35:52;;;;;;;1.27;1.17;;;25.00;47.70;;;;;;5068370;28;20460;-78
2022/03/30 12:38:21;;;;;;;0.50;0.30;;;25.50;46.40;;;;;;5068352;28;20485;-78
2022/03/30 12:40:52;;;;;;;1.03;1.00;;;25.00;46.60;;;;;;5062432;28;20440;-80
2022/03/30 12:43:27;;;;;;;0.50;0.40;;;24.20;46.20;;;;;;5056836;28;20815;-79
2022/03/30 12:46:00;;;;;;;1.97;1.80;;;23.20;46.80;;;;;;5057307;28;20477;-79
2022/03/30 12:48:28;;;;;;;0.50;0.40;;;22.50;47.90;;;;;;5056755;28;20459;-80
2022/03/30 12:50:58;;;;;;;1.00;1.00;;;21.50;49.80;;;;;;5056311;28;20441;-79
2022/03/30 12:53:31;;;;;;;1.90;1.03;;;20.40;50.30;;;;;;5056765;28;21006;-79
2022/03/30 12:56:11;;;;;;;0.50;0.40;;;20.10;51.70;;;;;;5057800;28;20796;-79
2022/03/30 12:58:52;;;;;;;7.93;1.37;;;19.60;51.40;;;;;;5056913;28;20429;-79
2022/03/30 13:01:29;;;;;;;0.50;0.30;;;20.30;53.20;;;;;;5055626;28;20448;-80
2022/03/30 13:03:56;;;;;;;0.50;0.40;;;20.60;51.50;;;;;;5057552;28;20441;-79
2022/03/30 13:06:24;;;;;;;4.10;1.47;;;20.40;50.50;;;;;;5057346;28;20457;-80
2022/03/30 13:09:06;;;;;;;0.50;0.40;;;20.00;50.60;;;;;;5055895;28;20962;-78
2022/03/30 13:11:32;;;;;;;2.00;0.80;;;19.60;51.70;;;;;;5057103;28;20437;-81
2022/03/30 13:14:00;;;;;;;1.23;1.13;;;20.20;52.30;;;;;;5056193;28;20992;-80